San Juan, PR

9:25 AM AST on July 31, 2015 (GMT -0400)
Condado, Calle Earle, At The Ocean | | Change Station
CLOSE
Current Station
Personal Weather Station
Location: San Juan, SAN JUAN
Elevation: 10 ft
Nearby Weather Stations

Elev 10 ft 18.46 °N, 66.07 °W | Updated 1 second ago

Scattered Clouds
Scattered Clouds
84.0 °F
Feels Like 93 °F
N
14.0
Wind Variable Wind from NE
Gusts 17.0 mph

Today
High -- | Low -- °F
--% Chance of Precip.
Yesterday
High -- | Low -- °F
Precip. -- in
6:01 AM 6:59 PM
Full, 100% visible
Pressure 30.07 in
Visibility 10.0 miles
Clouds Scattered Clouds 2500 ft
Scattered Clouds 3400 ft
Scattered Clouds 4400 ft
Heat Index 93 °F
Dew Point 76 °F
Humidity 78%
Rainfall 0.02 in
Snow Depth Not available.
UV 4 out of 12
Pollen Not available.
Air Quality Not available.
Flu Activity Not available.
METAR TJSJ 311256Z 09016G22KT 10SM SCT025 SCT034 SCT044 30/25 A3007 RMK AO2 RAB50E56 SLP181 VCSH SE W P0000 T03000250

More Conditions Fewer Conditions

Pressure 30.07 in
Visibility 10.0 miles
Clouds Scattered Clouds 2500 ft
Scattered Clouds 3400 ft
Scattered Clouds 4400 ft
Heat Index 93 °F
Dew Point 76 °F
Humidity 78%
Rainfall 0.02 in
Snow Depth Not available.
UV 4 out of 12
Pollen Not available.
Air Quality Not available.
Flu Activity Not available.
METAR TJSJ 311256Z 09016G22KT 10SM SCT025 SCT034 SCT044 30/25 A3007 RMK AO2 RAB50E56 SLP181 VCSH SE W P0000 T03000250

More Conditions Fewer Conditions

10-Day Weather Forecast

×

Almanac

Astronomy

Jul. 31, 2015 Rise Set
Actual Time
Civil Twilight
Nautical Twilight
Astronomical Twilight
Moon
Length of Visible Light
Length of Day
Tomorrow will be .
, % of the Moon is Illuminated

Today's Extremes

State Highs State Lows

Community

WunderPhotos

Upload Photos

1,842,653 photos uploaded!

WunderBlogs® & News

Nearby

Air Quality

  Air Quality AQ Index Pollutant
Not available.

Snow Depth

Station Depth Elevation

Earthquake Activity

City Distance Mag. Time & Date
Minimum magnitude displayed is 2.5.

Coastal Water Temperatures

Place Temperature

Stations

Nearby Weather Stations

Station Location Temp. Windchill Dew Point Humidity Wind Precip. Elev Updated Type